RYR6MQ LIME-LGIR
Flight info
| Callsign | RYR6MQ |
|---|---|
| Flight time | 2h 23m |
| Altitude | 37000 |
| Route | LOGDI DCT EKDIR DCT LOMED DCT LATAN DCT TRL UM601 MIL UL617 XAVIS |
| Aircraft | B738/M-SDE2E3FGHIRWXY/LB1 |
Departure
| Time | 2026-04-29 08:09 |
|---|---|
| Airport | Il Caravaggio International Airport (LIME) |
Arrival
| Time | 2026-04-29 10:33 |
|---|---|
| Airport | Heraklion International Nikos Kazantzakis Airport (LGIR) |
| Time | Latitude | Longitude | Altitude | Speed | Heading |
|---|---|---|---|---|---|
| 2026-04-29 07:54 | 45.66682 | 9.69866 | 778 ft | 0 kts | 195° |
| 2026-04-29 08:03 | 45.66693 | 9.69870 | 778 ft | 2 kts | 195° |
| 2026-04-29 08:03 | 45.66707 | 9.69875 | 779 ft | 2 kts | 195° |
| 2026-04-29 08:03 | 45.66722 | 9.69881 | 779 ft | 2 kts | 195° |
| 2026-04-29 08:03 | 45.66737 | 9.69887 | 779 ft | 2 kts | 211° |
| 2026-04-29 08:04 | 45.66748 | 9.69902 | 779 ft | 2 kts | 234° |
| 2026-04-29 08:04 | 45.66754 | 9.69921 | 779 ft | 2 kts | 257° |
| 2026-04-29 08:04 | 45.66756 | 9.69942 | 779 ft | 1 kts | 279° |
| 2026-04-29 08:04 | 45.66754 | 9.69951 | 779 ft | 1 kts | 287° |
| 2026-04-29 08:05 | 45.66753 | 9.69955 | 779 ft | 0 kts | 285° |
| 2026-04-29 08:06 | 45.66757 | 9.69935 | 779 ft | 4 kts | 285° |
| 2026-04-29 08:06 | 45.66769 | 9.69866 | 780 ft | 9 kts | 284° |
| 2026-04-29 08:07 | 45.66791 | 9.69745 | 780 ft | 15 kts | 286° |
| 2026-04-29 08:07 | 45.66824 | 9.69574 | 781 ft | 19 kts | 285° |
| 2026-04-29 08:07 | 45.66857 | 9.69395 | 782 ft | 17 kts | 284° |
| 2026-04-29 08:07 | 45.66887 | 9.69227 | 782 ft | 16 kts | 285° |
| 2026-04-29 08:08 | 45.66908 | 9.69066 | 780 ft | 17 kts | 278° |
| 2026-04-29 08:08 | 45.66962 | 9.68982 | 780 ft | 11 kts | 4° |
| 2026-04-29 08:08 | 45.67043 | 9.69028 | 782 ft | 13 kts | 51° |
| 2026-04-29 08:08 | 45.67063 | 9.69193 | 786 ft | 23 kts | 101° |
| 2026-04-29 08:09 | 45.66969 | 9.69699 | 786 ft | 90 kts | 105° |
| 2026-04-29 08:09 | 45.66743 | 9.70924 | 781 ft | 159 kts | 105° |
| 2026-04-29 08:09 | 45.66419 | 9.72633 | 1212 ft | 181 kts | 105° |
| 2026-04-29 08:09 | 45.66067 | 9.74276 | 2194 ft | 176 kts | 112° |
| 2026-04-29 08:10 | 45.65454 | 9.75787 | 2772 ft | 179 kts | 122° |
| 2026-04-29 08:10 | 45.64768 | 9.77316 | 3115 ft | 189 kts | 119° |
| 2026-04-29 08:10 | 45.64085 | 9.79054 | 3393 ft | 206 kts | 116° |
| 2026-04-29 08:10 | 45.63391 | 9.80930 | 3697 ft | 223 kts | 116° |
| 2026-04-29 08:11 | 45.62628 | 9.82895 | 4242 ft | 227 kts | 121° |
| 2026-04-29 08:11 | 45.61549 | 9.84613 | 4579 ft | 244 kts | 146° |
| 2026-04-29 08:11 | 45.59920 | 9.85434 | 5106 ft | 250 kts | 175° |
| 2026-04-29 08:11 | 45.58193 | 9.85481 | 5694 ft | 253 kts | 180° |
| 2026-04-29 08:12 | 45.56405 | 9.85306 | 6288 ft | 256 kts | 191° |
| 2026-04-29 08:12 | 45.54753 | 9.84392 | 6900 ft | 258 kts | 214° |
| 2026-04-29 08:12 | 45.53363 | 9.82807 | 7554 ft | 258 kts | 222° |
| 2026-04-29 08:12 | 45.52008 | 9.81086 | 8194 ft | 260 kts | 221° |
| 2026-04-29 08:13 | 45.50650 | 9.79409 | 8835 ft | 262 kts | 220° |
| 2026-04-29 08:13 | 45.49238 | 9.77726 | 9502 ft | 263 kts | 220° |
| 2026-04-29 08:13 | 45.47821 | 9.76064 | 10165 ft | 265 kts | 220° |
| 2026-04-29 08:13 | 45.46396 | 9.74400 | 10796 ft | 268 kts | 220° |
| 2026-04-29 08:14 | 45.44953 | 9.72690 | 11390 ft | 272 kts | 221° |
| 2026-04-29 08:14 | 45.43486 | 9.70851 | 11747 ft | 287 kts | 223° |
| 2026-04-29 08:14 | 45.41939 | 9.68863 | 12127 ft | 301 kts | 223° |
| 2026-04-29 08:14 | 45.40271 | 9.66917 | 12534 ft | 314 kts | 215° |
| 2026-04-29 08:15 | 45.38291 | 9.65568 | 13113 ft | 321 kts | 196° |
| 2026-04-29 08:15 | 45.36052 | 9.65206 | 13734 ft | 328 kts | 179° |
| 2026-04-29 08:15 | 45.33762 | 9.65728 | 14390 ft | 333 kts | 166° |
| 2026-04-29 08:15 | 45.31571 | 9.66899 | 15042 ft | 338 kts | 154° |
| 2026-04-29 08:16 | 45.29507 | 9.68589 | 15728 ft | 342 kts | 148° |
| 2026-04-29 08:16 | 45.27505 | 9.70491 | 16372 ft | 346 kts | 147° |
| 2026-04-29 08:16 | 45.25511 | 9.72452 | 17028 ft | 350 kts | 147° |
| 2026-04-29 08:16 | 45.23493 | 9.74411 | 17655 ft | 353 kts | 147° |
| 2026-04-29 08:17 | 45.21443 | 9.76358 | 18234 ft | 356 kts | 148° |
| 2026-04-29 08:17 | 45.19380 | 9.78282 | 18862 ft | 359 kts | 148° |
| 2026-04-29 08:17 | 45.17260 | 9.80237 | 19464 ft | 363 kts | 149° |
| 2026-04-29 08:17 | 45.15139 | 9.82182 | 20005 ft | 367 kts | 149° |
| 2026-04-29 08:18 | 45.12985 | 9.84155 | 20573 ft | 370 kts | 149° |
| 2026-04-29 08:18 | 45.10792 | 9.86161 | 21126 ft | 373 kts | 149° |
| 2026-04-29 08:18 | 45.08613 | 9.88154 | 21655 ft | 376 kts | 149° |
| 2026-04-29 08:18 | 45.06380 | 9.90197 | 22168 ft | 380 kts | 149° |
| 2026-04-29 08:19 | 45.04166 | 9.92220 | 22691 ft | 382 kts | 149° |
| 2026-04-29 08:19 | 45.01894 | 9.94296 | 23215 ft | 385 kts | 149° |
| 2026-04-29 08:19 | 44.99660 | 9.96324 | 23698 ft | 387 kts | 149° |
| 2026-04-29 08:19 | 44.97337 | 9.98331 | 24154 ft | 391 kts | 151° |
| 2026-04-29 08:20 | 44.94978 | 10.00284 | 24644 ft | 393 kts | 152° |
| 2026-04-29 08:20 | 44.92594 | 10.02224 | 25100 ft | 396 kts | 152° |
| 2026-04-29 08:20 | 44.90160 | 10.04196 | 25502 ft | 400 kts | 152° |
| 2026-04-29 08:20 | 44.87735 | 10.06165 | 25967 ft | 402 kts | 152° |
| 2026-04-29 08:21 | 44.85303 | 10.08145 | 26386 ft | 405 kts | 152° |
| 2026-04-29 08:21 | 44.82847 | 10.10148 | 26808 ft | 407 kts | 152° |
| 2026-04-29 08:21 | 44.80354 | 10.12185 | 27181 ft | 411 kts | 152° |
| 2026-04-29 08:21 | 44.77877 | 10.14211 | 27598 ft | 413 kts | 152° |
| 2026-04-29 08:22 | 44.75358 | 10.16270 | 27988 ft | 416 kts | 152° |
| 2026-04-29 08:22 | 44.72813 | 10.18351 | 28426 ft | 417 kts | 152° |
| 2026-04-29 08:22 | 44.70282 | 10.20493 | 28755 ft | 422 kts | 149° |
| 2026-04-29 08:22 | 44.67836 | 10.22815 | 29153 ft | 424 kts | 146° |
| 2026-04-29 08:23 | 44.65418 | 10.25269 | 29491 ft | 427 kts | 145° |
| 2026-04-29 08:23 | 44.62996 | 10.27794 | 29845 ft | 430 kts | 145° |
| 2026-04-29 08:23 | 44.60592 | 10.30312 | 30184 ft | 432 kts | 145° |
| 2026-04-29 08:23 | 44.58150 | 10.32857 | 30494 ft | 435 kts | 145° |
| 2026-04-29 08:24 | 44.55719 | 10.35374 | 30825 ft | 437 kts | 145° |
| 2026-04-29 08:24 | 44.53251 | 10.37911 | 31176 ft | 438 kts | 146° |
| 2026-04-29 08:24 | 44.50785 | 10.40431 | 31468 ft | 441 kts | 146° |
| 2026-04-29 08:24 | 44.48304 | 10.42956 | 31794 ft | 443 kts | 146° |
| 2026-04-29 08:25 | 44.45779 | 10.45517 | 32095 ft | 445 kts | 146° |
| 2026-04-29 08:25 | 44.43290 | 10.48035 | 32442 ft | 446 kts | 146° |
| 2026-04-29 08:25 | 44.40748 | 10.50602 | 32690 ft | 449 kts | 146° |
| 2026-04-29 08:25 | 44.38217 | 10.53153 | 32991 ft | 450 kts | 146° |
| 2026-04-29 08:26 | 44.35649 | 10.55739 | 33286 ft | 452 kts | 146° |
| 2026-04-29 08:26 | 44.33079 | 10.58324 | 33592 ft | 454 kts | 146° |
| 2026-04-29 08:26 | 44.30503 | 10.60911 | 33854 ft | 456 kts | 146° |
| 2026-04-29 08:26 | 44.27910 | 10.63514 | 34155 ft | 457 kts | 146° |
| 2026-04-29 08:27 | 44.25349 | 10.66081 | 34418 ft | 459 kts | 147° |
| 2026-04-29 08:27 | 44.22772 | 10.68737 | 34813 ft | 458 kts | 144° |
| 2026-04-29 08:27 | 44.20338 | 10.71637 | 35275 ft | 457 kts | 139° |
| 2026-04-29 08:27 | 44.18118 | 10.74750 | 35626 ft | 457 kts | 135° |
| 2026-04-29 08:28 | 44.15973 | 10.78081 | 35936 ft | 458 kts | 133° |
| 2026-04-29 08:28 | 44.13898 | 10.81479 | 36230 ft | 458 kts | 132° |
| 2026-04-29 08:28 | 44.11871 | 10.84876 | 36545 ft | 457 kts | 131° |
| 2026-04-29 08:28 | 44.09854 | 10.88283 | 36829 ft | 457 kts | 131° |
| 2026-04-29 08:29 | 44.07828 | 10.91699 | 37074 ft | 456 kts | 131° |
| 2026-04-29 08:29 | 44.05794 | 10.95110 | 37075 ft | 458 kts | 132° |
| 2026-04-29 08:29 | 44.01732 | 11.01911 | 37084 ft | 456 kts | 130° |
| 2026-04-29 08:30 | 43.96117 | 11.12608 | 37070 ft | 457 kts | 127° |
| 2026-04-29 08:31 | 43.92476 | 11.19837 | 37061 ft | 456 kts | 127° |
| 2026-04-29 08:31 | 43.88806 | 11.27031 | 37056 ft | 456 kts | 127° |
| 2026-04-29 08:32 | 43.85115 | 11.34173 | 37056 ft | 456 kts | 127° |
| 2026-04-29 08:32 | 43.81394 | 11.41315 | 37056 ft | 456 kts | 127° |
| 2026-04-29 08:33 | 43.77642 | 11.48484 | 37057 ft | 456 kts | 127° |
| 2026-04-29 08:33 | 43.73909 | 11.55590 | 37060 ft | 456 kts | 127° |
| 2026-04-29 08:34 | 43.70163 | 11.62705 | 37064 ft | 457 kts | 127° |
| 2026-04-29 08:34 | 43.66424 | 11.69787 | 37070 ft | 456 kts | 128° |
| 2026-04-29 08:35 | 43.62664 | 11.76892 | 37068 ft | 455 kts | 128° |
| 2026-04-29 08:35 | 43.58929 | 11.83936 | 36899 ft | 452 kts | 128° |
| 2026-04-29 08:35 | 43.57068 | 11.87440 | 37073 ft | 453 kts | 128° |
| 2026-04-29 08:36 | 43.55182 | 11.90984 | 36998 ft | 458 kts | 128° |
| 2026-04-29 08:36 | 43.51409 | 11.98063 | 37071 ft | 458 kts | 128° |
| 2026-04-29 08:36 | 43.49514 | 12.01611 | 36955 ft | 461 kts | 128° |
| 2026-04-29 08:37 | 43.47630 | 12.05137 | 37416 ft | 454 kts | 128° |
| 2026-04-29 08:37 | 43.45744 | 12.08662 | 37148 ft | 460 kts | 128° |
| 2026-04-29 08:37 | 43.43862 | 12.12174 | 36776 ft | 452 kts | 128° |
| 2026-04-29 08:37 | 43.41983 | 12.15680 | 37068 ft | 449 kts | 128° |
| 2026-04-29 08:38 | 43.40108 | 12.19171 | 37073 ft | 453 kts | 128° |
| 2026-04-29 08:38 | 43.36335 | 12.26179 | 37075 ft | 459 kts | 128° |
| 2026-04-29 08:39 | 43.32541 | 12.33214 | 37079 ft | 456 kts | 128° |
| 2026-04-29 08:39 | 43.28739 | 12.40247 | 37083 ft | 457 kts | 128° |
| 2026-04-29 08:40 | 43.24947 | 12.47244 | 37085 ft | 457 kts | 128° |
| 2026-04-29 08:40 | 43.21135 | 12.54262 | 37084 ft | 457 kts | 128° |
| 2026-04-29 08:41 | 43.17304 | 12.61296 | 37081 ft | 456 kts | 128° |
| 2026-04-29 08:41 | 43.13515 | 12.68237 | 37080 ft | 456 kts | 128° |
| 2026-04-29 08:42 | 43.09719 | 12.75175 | 37084 ft | 457 kts | 128° |
| 2026-04-29 08:42 | 43.05871 | 12.82192 | 37093 ft | 457 kts | 128° |
| 2026-04-29 08:43 | 43.02053 | 12.89138 | 37092 ft | 457 kts | 128° |
| 2026-04-29 08:43 | 42.98235 | 12.96069 | 37100 ft | 456 kts | 128° |
| 2026-04-29 08:44 | 42.94402 | 13.03009 | 37110 ft | 456 kts | 128° |
| 2026-04-29 08:44 | 42.90571 | 13.09930 | 37111 ft | 455 kts | 128° |
| 2026-04-29 08:45 | 42.86749 | 13.16817 | 37115 ft | 455 kts | 128° |
| 2026-04-29 08:45 | 42.82919 | 13.23703 | 37114 ft | 456 kts | 128° |
| 2026-04-29 08:46 | 42.79074 | 13.30599 | 37115 ft | 456 kts | 128° |
| 2026-04-29 08:46 | 42.75207 | 13.37520 | 37111 ft | 456 kts | 128° |
| 2026-04-29 08:47 | 42.71354 | 13.44401 | 37105 ft | 456 kts | 128° |
| 2026-04-29 08:47 | 42.67504 | 13.51257 | 37108 ft | 455 kts | 128° |
| 2026-04-29 08:48 | 42.63655 | 13.58100 | 37107 ft | 455 kts | 128° |
| 2026-04-29 08:48 | 42.59795 | 13.64944 | 37099 ft | 455 kts | 128° |
| 2026-04-29 08:49 | 42.55939 | 13.71765 | 37095 ft | 454 kts | 129° |
| 2026-04-29 08:49 | 42.52075 | 13.78585 | 37080 ft | 455 kts | 129° |
| 2026-04-29 08:50 | 42.48210 | 13.85391 | 37074 ft | 455 kts | 129° |
| 2026-04-29 08:50 | 42.44355 | 13.92165 | 37065 ft | 456 kts | 129° |
| 2026-04-29 08:51 | 42.40479 | 13.98961 | 37055 ft | 455 kts | 129° |
| 2026-04-29 08:51 | 42.36592 | 14.05758 | 37051 ft | 454 kts | 129° |
| 2026-04-29 08:52 | 42.32736 | 14.12487 | 37058 ft | 454 kts | 129° |
| 2026-04-29 08:52 | 42.28861 | 14.19234 | 37059 ft | 454 kts | 129° |
| 2026-04-29 08:53 | 42.24981 | 14.25974 | 37066 ft | 455 kts | 129° |
| 2026-04-29 08:53 | 42.21099 | 14.32702 | 37071 ft | 454 kts | 129° |
| 2026-04-29 08:54 | 42.17211 | 14.39427 | 37067 ft | 454 kts | 129° |
| 2026-04-29 08:54 | 42.13308 | 14.46164 | 37067 ft | 454 kts | 129° |
| 2026-04-29 08:55 | 42.09388 | 14.52911 | 37064 ft | 453 kts | 129° |
| 2026-04-29 08:55 | 42.05503 | 14.59584 | 37059 ft | 453 kts | 129° |
| 2026-04-29 08:56 | 42.01622 | 14.66236 | 37058 ft | 454 kts | 129° |
| 2026-04-29 08:56 | 41.97704 | 14.72935 | 37044 ft | 454 kts | 129° |
| 2026-04-29 08:57 | 41.93789 | 14.79617 | 37045 ft | 454 kts | 129° |
| 2026-04-29 08:57 | 41.89842 | 14.86336 | 37050 ft | 455 kts | 129° |
| 2026-04-29 08:58 | 41.85938 | 14.92969 | 37046 ft | 453 kts | 129° |
| 2026-04-29 08:58 | 41.82005 | 14.99636 | 37041 ft | 452 kts | 129° |
| 2026-04-29 08:59 | 41.78076 | 15.06282 | 37046 ft | 453 kts | 129° |
| 2026-04-29 08:59 | 41.74132 | 15.12938 | 37051 ft | 453 kts | 129° |
| 2026-04-29 09:00 | 41.70199 | 15.19561 | 37044 ft | 454 kts | 129° |
| 2026-04-29 09:00 | 41.66233 | 15.26223 | 37033 ft | 456 kts | 129° |
| 2026-04-29 09:01 | 41.62287 | 15.32838 | 37043 ft | 455 kts | 129° |
| 2026-04-29 09:01 | 41.58329 | 15.39460 | 37045 ft | 455 kts | 129° |
| 2026-04-29 09:02 | 41.54355 | 15.46092 | 37051 ft | 454 kts | 129° |
| 2026-04-29 09:02 | 41.50409 | 15.52664 | 37044 ft | 453 kts | 129° |
| 2026-04-29 09:03 | 41.46472 | 15.59207 | 37057 ft | 455 kts | 129° |
| 2026-04-29 09:03 | 41.42471 | 15.65841 | 37055 ft | 456 kts | 130° |
| 2026-04-29 09:04 | 41.38474 | 15.72455 | 37056 ft | 455 kts | 130° |
| 2026-04-29 09:04 | 41.34496 | 15.79022 | 37062 ft | 455 kts | 130° |
| 2026-04-29 09:05 | 41.30508 | 15.85592 | 37056 ft | 455 kts | 130° |
| 2026-04-29 09:05 | 41.26528 | 15.92135 | 37056 ft | 454 kts | 130° |
| 2026-04-29 09:06 | 41.22527 | 15.98698 | 37058 ft | 455 kts | 130° |
| 2026-04-29 09:06 | 41.18534 | 16.05234 | 37059 ft | 455 kts | 130° |
| 2026-04-29 09:07 | 41.14553 | 16.11738 | 37069 ft | 453 kts | 130° |
| 2026-04-29 09:07 | 41.10609 | 16.18166 | 37072 ft | 453 kts | 130° |
| 2026-04-29 09:08 | 41.06598 | 16.24690 | 37084 ft | 455 kts | 130° |
| 2026-04-29 09:08 | 41.02587 | 16.31199 | 37078 ft | 455 kts | 130° |
| 2026-04-29 09:09 | 40.98573 | 16.37700 | 37076 ft | 453 kts | 130° |
| 2026-04-29 09:09 | 40.94554 | 16.44194 | 37071 ft | 454 kts | 130° |
| 2026-04-29 09:10 | 40.90538 | 16.50670 | 37070 ft | 454 kts | 130° |
| 2026-04-29 09:10 | 40.86545 | 16.57094 | 37077 ft | 454 kts | 130° |
| 2026-04-29 09:11 | 40.82509 | 16.63574 | 37070 ft | 454 kts | 129° |
| 2026-04-29 09:11 | 40.78463 | 16.70057 | 37072 ft | 455 kts | 130° |
| 2026-04-29 09:12 | 40.74431 | 16.76505 | 37076 ft | 454 kts | 130° |
| 2026-04-29 09:12 | 40.70383 | 16.82965 | 37073 ft | 455 kts | 130° |
| 2026-04-29 09:13 | 40.66336 | 16.89409 | 37065 ft | 454 kts | 130° |
| 2026-04-29 09:13 | 40.62313 | 16.95801 | 37065 ft | 454 kts | 130° |
| 2026-04-29 09:14 | 40.58268 | 17.02214 | 37063 ft | 454 kts | 130° |
| 2026-04-29 09:14 | 40.54205 | 17.08643 | 37055 ft | 454 kts | 130° |
| 2026-04-29 09:15 | 40.50172 | 17.15010 | 37053 ft | 455 kts | 130° |
| 2026-04-29 09:15 | 40.46106 | 17.21418 | 37047 ft | 455 kts | 130° |
| 2026-04-29 09:16 | 40.42029 | 17.27827 | 37057 ft | 453 kts | 130° |
| 2026-04-29 09:16 | 40.37974 | 17.34190 | 37062 ft | 454 kts | 130° |
| 2026-04-29 09:17 | 40.33909 | 17.40555 | 37058 ft | 455 kts | 130° |
| 2026-04-29 09:17 | 40.29843 | 17.46909 | 37063 ft | 455 kts | 130° |
| 2026-04-29 09:18 | 40.25754 | 17.53286 | 37052 ft | 454 kts | 130° |
| 2026-04-29 09:18 | 40.21697 | 17.59600 | 37060 ft | 454 kts | 130° |
| 2026-04-29 09:19 | 40.17634 | 17.65908 | 37055 ft | 454 kts | 131° |
| 2026-04-29 09:19 | 40.13545 | 17.72246 | 37064 ft | 454 kts | 131° |
| 2026-04-29 09:20 | 40.09467 | 17.78553 | 37066 ft | 454 kts | 131° |
| 2026-04-29 09:20 | 40.05370 | 17.84878 | 37060 ft | 455 kts | 131° |
| 2026-04-29 09:21 | 40.01279 | 17.91178 | 37066 ft | 456 kts | 131° |
| 2026-04-29 09:21 | 39.97164 | 17.97503 | 37067 ft | 455 kts | 131° |
| 2026-04-29 09:22 | 39.93053 | 18.03809 | 37071 ft | 456 kts | 131° |
| 2026-04-29 09:22 | 39.88938 | 18.10109 | 37079 ft | 456 kts | 131° |
| 2026-04-29 09:23 | 39.84816 | 18.16408 | 37078 ft | 455 kts | 131° |
| 2026-04-29 09:23 | 39.80696 | 18.22690 | 37079 ft | 456 kts | 131° |
| 2026-04-29 09:24 | 39.76561 | 18.28983 | 37080 ft | 456 kts | 131° |
| 2026-04-29 09:24 | 39.72422 | 18.35268 | 37083 ft | 456 kts | 131° |
| 2026-04-29 09:25 | 39.68278 | 18.41549 | 37092 ft | 456 kts | 131° |
| 2026-04-29 09:25 | 39.64143 | 18.47802 | 37093 ft | 456 kts | 131° |
| 2026-04-29 09:26 | 39.59985 | 18.54077 | 37094 ft | 456 kts | 131° |
| 2026-04-29 09:26 | 39.55820 | 18.60351 | 37096 ft | 457 kts | 131° |
| 2026-04-29 09:27 | 39.51673 | 18.66584 | 37094 ft | 456 kts | 132° |
| 2026-04-29 09:27 | 39.47527 | 18.72805 | 37094 ft | 456 kts | 132° |
| 2026-04-29 09:28 | 39.43366 | 18.79035 | 37094 ft | 456 kts | 132° |
| 2026-04-29 09:28 | 39.39200 | 18.85261 | 37101 ft | 456 kts | 132° |
| 2026-04-29 09:29 | 39.35050 | 18.91449 | 37102 ft | 455 kts | 132° |
| 2026-04-29 09:29 | 39.28848 | 19.00831 | 37105 ft | 456 kts | 128° |
| 2026-04-29 09:30 | 39.25107 | 19.07448 | 37107 ft | 456 kts | 125° |
| 2026-04-29 09:30 | 39.21516 | 19.14211 | 37107 ft | 457 kts | 124° |
| 2026-04-29 09:31 | 39.17929 | 19.20986 | 37109 ft | 456 kts | 125° |
| 2026-04-29 09:31 | 39.14290 | 19.27789 | 37108 ft | 457 kts | 125° |
| 2026-04-29 09:32 | 39.10656 | 19.34525 | 37107 ft | 457 kts | 125° |
| 2026-04-29 09:32 | 39.07018 | 19.41231 | 37107 ft | 457 kts | 125° |
| 2026-04-29 09:33 | 39.03349 | 19.47972 | 37114 ft | 458 kts | 125° |
| 2026-04-29 09:33 | 38.99675 | 19.54707 | 37111 ft | 456 kts | 125° |
| 2026-04-29 09:34 | 38.96024 | 19.61385 | 37111 ft | 455 kts | 125° |
| 2026-04-29 09:34 | 38.92375 | 19.68044 | 37108 ft | 457 kts | 126° |
| 2026-04-29 09:35 | 38.88695 | 19.74745 | 37111 ft | 458 kts | 126° |
| 2026-04-29 09:35 | 38.84999 | 19.81462 | 37113 ft | 457 kts | 126° |
| 2026-04-29 09:36 | 38.81318 | 19.88137 | 37113 ft | 459 kts | 126° |
| 2026-04-29 09:36 | 38.77626 | 19.94821 | 37111 ft | 459 kts | 126° |
| 2026-04-29 09:37 | 38.73934 | 20.01489 | 37109 ft | 459 kts | 126° |
| 2026-04-29 09:37 | 38.70228 | 20.08169 | 37101 ft | 459 kts | 126° |
| 2026-04-29 09:38 | 38.66506 | 20.14863 | 37109 ft | 459 kts | 126° |
| 2026-04-29 09:38 | 38.62792 | 20.21529 | 37099 ft | 459 kts | 126° |
| 2026-04-29 09:39 | 38.59085 | 20.28169 | 37104 ft | 461 kts | 126° |
| 2026-04-29 09:39 | 38.55353 | 20.34841 | 37101 ft | 460 kts | 126° |
| 2026-04-29 09:40 | 38.51614 | 20.41513 | 37094 ft | 460 kts | 126° |
| 2026-04-29 09:40 | 38.47900 | 20.48126 | 37097 ft | 460 kts | 126° |
| 2026-04-29 09:41 | 38.44147 | 20.54794 | 37093 ft | 460 kts | 126° |
| 2026-04-29 09:41 | 38.40407 | 20.61426 | 37098 ft | 461 kts | 126° |
| 2026-04-29 09:42 | 38.36664 | 20.68047 | 37093 ft | 461 kts | 126° |
| 2026-04-29 09:42 | 38.32911 | 20.74673 | 37088 ft | 460 kts | 127° |
| 2026-04-29 09:43 | 38.29148 | 20.81305 | 37082 ft | 461 kts | 127° |
| 2026-04-29 09:43 | 38.25380 | 20.87932 | 37075 ft | 460 kts | 127° |
| 2026-04-29 09:44 | 38.21618 | 20.94534 | 37079 ft | 461 kts | 126° |
| 2026-04-29 09:44 | 38.17853 | 21.01129 | 37080 ft | 461 kts | 126° |
| 2026-04-29 09:45 | 38.14080 | 21.07725 | 37071 ft | 461 kts | 127° |
| 2026-04-29 09:45 | 38.10306 | 21.14309 | 37082 ft | 461 kts | 127° |
| 2026-04-29 09:46 | 38.06527 | 21.20888 | 37083 ft | 461 kts | 127° |
| 2026-04-29 09:46 | 38.02742 | 21.27464 | 37082 ft | 460 kts | 127° |
| 2026-04-29 09:47 | 37.98972 | 21.34003 | 37089 ft | 461 kts | 127° |
| 2026-04-29 09:47 | 37.95168 | 21.40584 | 37096 ft | 462 kts | 127° |
| 2026-04-29 09:48 | 37.91333 | 21.47208 | 37097 ft | 462 kts | 127° |
| 2026-04-29 09:48 | 37.87529 | 21.53764 | 37100 ft | 461 kts | 127° |
| 2026-04-29 09:49 | 37.83717 | 21.60322 | 37108 ft | 461 kts | 127° |
| 2026-04-29 09:49 | 37.79910 | 21.66859 | 37120 ft | 461 kts | 127° |
| 2026-04-29 09:50 | 37.76072 | 21.73434 | 37129 ft | 462 kts | 127° |
| 2026-04-29 09:50 | 37.72263 | 21.79948 | 37129 ft | 462 kts | 127° |
| 2026-04-29 09:51 | 37.68418 | 21.86509 | 37139 ft | 463 kts | 127° |
| 2026-04-29 09:51 | 37.64568 | 21.93067 | 37123 ft | 462 kts | 127° |
| 2026-04-29 09:52 | 37.60743 | 21.99569 | 37117 ft | 462 kts | 127° |
| 2026-04-29 09:52 | 37.56884 | 22.06116 | 37112 ft | 462 kts | 127° |
| 2026-04-29 09:53 | 37.53027 | 22.12646 | 37114 ft | 462 kts | 127° |
| 2026-04-29 09:53 | 37.49181 | 22.19144 | 37119 ft | 463 kts | 127° |
| 2026-04-29 09:54 | 37.45318 | 22.25658 | 37127 ft | 462 kts | 127° |
| 2026-04-29 09:54 | 37.41586 | 22.32234 | 37122 ft | 464 kts | 122° |
| 2026-04-29 09:55 | 37.38661 | 22.39527 | 37124 ft | 464 kts | 112° |
| 2026-04-29 09:55 | 37.36354 | 22.47121 | 37126 ft | 464 kts | 109° |
| 2026-04-29 09:56 | 37.34198 | 22.54781 | 37115 ft | 464 kts | 109° |
| 2026-04-29 09:56 | 37.32041 | 22.62422 | 37118 ft | 465 kts | 109° |
| 2026-04-29 09:57 | 37.29836 | 22.70090 | 37126 ft | 465 kts | 110° |
| 2026-04-29 09:57 | 37.27611 | 22.77722 | 37130 ft | 465 kts | 110° |
| 2026-04-29 09:58 | 37.25366 | 22.85361 | 37113 ft | 464 kts | 110° |
| 2026-04-29 09:58 | 37.23117 | 22.92982 | 37102 ft | 465 kts | 110° |
| 2026-04-29 09:59 | 37.20871 | 23.00570 | 37068 ft | 463 kts | 110° |
| 2026-04-29 09:59 | 37.18609 | 23.08189 | 37072 ft | 464 kts | 110° |
| 2026-04-29 10:00 | 37.16354 | 23.15766 | 37073 ft | 464 kts | 110° |
| 2026-04-29 10:00 | 37.14076 | 23.23399 | 37072 ft | 466 kts | 110° |
| 2026-04-29 10:01 | 37.11808 | 23.30979 | 37069 ft | 465 kts | 110° |
| 2026-04-29 10:01 | 37.09517 | 23.38603 | 37066 ft | 466 kts | 110° |
| 2026-04-29 10:02 | 37.07239 | 23.46161 | 37069 ft | 466 kts | 110° |
| 2026-04-29 10:02 | 37.04940 | 23.53770 | 37069 ft | 465 kts | 110° |
| 2026-04-29 10:03 | 37.02642 | 23.61354 | 37065 ft | 465 kts | 110° |
| 2026-04-29 10:03 | 37.00339 | 23.68929 | 37063 ft | 466 kts | 111° |
| 2026-04-29 10:04 | 36.98022 | 23.76537 | 37071 ft | 466 kts | 111° |
| 2026-04-29 10:04 | 36.95713 | 23.84097 | 37073 ft | 466 kts | 111° |
| 2026-04-29 10:05 | 36.93396 | 23.91663 | 37066 ft | 467 kts | 111° |
| 2026-04-29 10:05 | 36.91049 | 23.99306 | 37068 ft | 467 kts | 111° |
| 2026-04-29 10:06 | 36.88730 | 24.06839 | 37073 ft | 467 kts | 111° |
| 2026-04-29 10:06 | 36.86386 | 24.14444 | 37067 ft | 466 kts | 110° |
| 2026-04-29 10:07 | 36.84052 | 24.21996 | 37066 ft | 466 kts | 111° |
| 2026-04-29 10:07 | 36.81702 | 24.29578 | 37058 ft | 467 kts | 111° |
| 2026-04-29 10:08 | 36.80537 | 24.33328 | 36776 ft | 462 kts | 111° |
| 2026-04-29 10:08 | 36.79381 | 24.37046 | 36332 ft | 458 kts | 111° |
| 2026-04-29 10:08 | 36.78225 | 24.40758 | 35834 ft | 455 kts | 111° |
| 2026-04-29 10:08 | 36.77085 | 24.44413 | 35467 ft | 450 kts | 111° |
| 2026-04-29 10:09 | 36.75901 | 24.48001 | 35005 ft | 448 kts | 114° |
| 2026-04-29 10:09 | 36.74441 | 24.51422 | 34537 ft | 446 kts | 124° |
| 2026-04-29 10:09 | 36.72467 | 24.54395 | 34061 ft | 442 kts | 136° |
| 2026-04-29 10:09 | 36.70200 | 24.56975 | 33540 ft | 439 kts | 141° |
| 2026-04-29 10:10 | 36.67837 | 24.59411 | 33046 ft | 436 kts | 142° |
| 2026-04-29 10:10 | 36.65487 | 24.61744 | 32574 ft | 433 kts | 143° |
| 2026-04-29 10:10 | 36.63101 | 24.64085 | 32094 ft | 430 kts | 143° |
| 2026-04-29 10:10 | 36.60764 | 24.66383 | 31617 ft | 427 kts | 143° |
| 2026-04-29 10:11 | 36.58435 | 24.68687 | 31141 ft | 423 kts | 143° |
| 2026-04-29 10:11 | 36.56129 | 24.70983 | 30665 ft | 421 kts | 143° |
| 2026-04-29 10:11 | 36.53865 | 24.73249 | 30198 ft | 417 kts | 143° |
| 2026-04-29 10:11 | 36.51603 | 24.75524 | 29712 ft | 414 kts | 142° |
| 2026-04-29 10:12 | 36.49390 | 24.77755 | 29245 ft | 411 kts | 142° |
| 2026-04-29 10:12 | 36.47171 | 24.79996 | 28778 ft | 408 kts | 142° |
| 2026-04-29 10:12 | 36.44972 | 24.82218 | 28311 ft | 404 kts | 142° |
| 2026-04-29 10:12 | 36.42778 | 24.84437 | 27844 ft | 401 kts | 142° |
| 2026-04-29 10:13 | 36.40638 | 24.86600 | 27384 ft | 398 kts | 142° |
| 2026-04-29 10:13 | 36.38477 | 24.88785 | 26921 ft | 395 kts | 142° |
| 2026-04-29 10:13 | 36.36337 | 24.90946 | 26457 ft | 392 kts | 142° |
| 2026-04-29 10:13 | 36.34244 | 24.93057 | 25999 ft | 389 kts | 142° |
| 2026-04-29 10:14 | 36.32157 | 24.95162 | 25545 ft | 386 kts | 142° |
| 2026-04-29 10:14 | 36.30062 | 24.97274 | 25085 ft | 383 kts | 142° |
| 2026-04-29 10:14 | 36.28009 | 24.99340 | 24632 ft | 381 kts | 142° |
| 2026-04-29 10:14 | 36.25932 | 25.01431 | 24176 ft | 378 kts | 142° |
| 2026-04-29 10:15 | 36.23895 | 25.03480 | 23720 ft | 375 kts | 142° |
| 2026-04-29 10:15 | 36.21896 | 25.05488 | 23280 ft | 372 kts | 142° |
| 2026-04-29 10:15 | 36.19891 | 25.07501 | 22833 ft | 369 kts | 142° |
| 2026-04-29 10:15 | 36.17905 | 25.09493 | 22394 ft | 366 kts | 142° |
| 2026-04-29 10:16 | 36.15935 | 25.11469 | 21951 ft | 363 kts | 142° |
| 2026-04-29 10:16 | 36.14604 | 25.12803 | 21652 ft | 362 kts | 142° |
| 2026-04-29 10:16 | 36.12017 | 25.15394 | 21074 ft | 358 kts | 142° |
| 2026-04-29 10:16 | 36.10082 | 25.17330 | 20638 ft | 356 kts | 142° |
| 2026-04-29 10:17 | 36.08156 | 25.19256 | 20203 ft | 353 kts | 142° |
| 2026-04-29 10:17 | 36.06244 | 25.21167 | 19770 ft | 351 kts | 142° |
| 2026-04-29 10:17 | 36.04323 | 25.23085 | 19335 ft | 349 kts | 142° |
| 2026-04-29 10:17 | 36.02458 | 25.24947 | 18907 ft | 346 kts | 142° |
| 2026-04-29 10:18 | 36.00568 | 25.26832 | 18481 ft | 344 kts | 142° |
| 2026-04-29 10:18 | 35.98713 | 25.28683 | 18045 ft | 342 kts | 142° |
| 2026-04-29 10:18 | 35.96850 | 25.30541 | 17620 ft | 340 kts | 142° |
| 2026-04-29 10:18 | 35.95029 | 25.32355 | 17222 ft | 338 kts | 141° |
| 2026-04-29 10:19 | 35.93194 | 25.34181 | 16786 ft | 336 kts | 141° |
| 2026-04-29 10:19 | 35.91384 | 25.35981 | 16367 ft | 334 kts | 141° |
| 2026-04-29 10:19 | 35.89570 | 25.37783 | 15946 ft | 332 kts | 141° |
| 2026-04-29 10:19 | 35.87771 | 25.39569 | 15534 ft | 330 kts | 141° |
| 2026-04-29 10:20 | 35.85983 | 25.41343 | 15134 ft | 328 kts | 141° |
| 2026-04-29 10:20 | 35.84206 | 25.43105 | 14724 ft | 326 kts | 141° |
| 2026-04-29 10:20 | 35.82447 | 25.44849 | 14320 ft | 325 kts | 141° |
| 2026-04-29 10:20 | 35.80688 | 25.46592 | 13898 ft | 323 kts | 141° |
| 2026-04-29 10:21 | 35.78909 | 25.48353 | 13488 ft | 321 kts | 141° |
| 2026-04-29 10:21 | 35.77179 | 25.50065 | 13093 ft | 319 kts | 140° |
| 2026-04-29 10:21 | 35.75448 | 25.51776 | 12678 ft | 317 kts | 140° |
| 2026-04-29 10:21 | 35.73736 | 25.53469 | 12292 ft | 315 kts | 140° |
| 2026-04-29 10:22 | 35.72021 | 25.55163 | 11884 ft | 314 kts | 140° |
| 2026-04-29 10:22 | 35.70328 | 25.56834 | 11490 ft | 312 kts | 140° |
| 2026-04-29 10:22 | 35.68624 | 25.58515 | 11135 ft | 308 kts | 140° |
| 2026-04-29 10:22 | 35.66962 | 25.60156 | 10749 ft | 307 kts | 140° |
| 2026-04-29 10:23 | 35.65284 | 25.61811 | 10359 ft | 306 kts | 140° |
| 2026-04-29 10:23 | 35.63642 | 25.63430 | 10010 ft | 302 kts | 140° |
| 2026-04-29 10:23 | 35.62012 | 25.65034 | 9778 ft | 294 kts | 141° |
| 2026-04-29 10:23 | 35.60212 | 25.66258 | 9343 ft | 296 kts | 166° |
| 2026-04-29 10:24 | 35.58174 | 25.66328 | 8984 ft | 292 kts | 194° |
| 2026-04-29 10:24 | 35.56341 | 25.65354 | 8613 ft | 287 kts | 217° |
| 2026-04-29 10:24 | 35.54878 | 25.63690 | 8254 ft | 282 kts | 233° |
| 2026-04-29 10:24 | 35.53853 | 25.61694 | 7886 ft | 277 kts | 252° |
| 2026-04-29 10:25 | 35.53527 | 25.59369 | 7471 ft | 272 kts | 272° |
| 2026-04-29 10:25 | 35.53585 | 25.57070 | 7110 ft | 270 kts | 271° |
| 2026-04-29 10:25 | 35.53233 | 25.54817 | 6769 ft | 272 kts | 251° |
| 2026-04-29 10:25 | 35.52349 | 25.52761 | 6436 ft | 273 kts | 240° |
| 2026-04-29 10:26 | 35.51260 | 25.50811 | 6082 ft | 273 kts | 237° |
| 2026-04-29 10:26 | 35.50172 | 25.48915 | 5739 ft | 271 kts | 238° |
| 2026-04-29 10:26 | 35.49111 | 25.46992 | 5405 ft | 270 kts | 239° |
| 2026-04-29 10:26 | 35.48077 | 25.45052 | 5065 ft | 269 kts | 240° |
| 2026-04-29 10:27 | 35.45885 | 25.41366 | 4532 ft | 265 kts | 223° |
| 2026-04-29 10:27 | 35.44234 | 25.40380 | 4456 ft | 261 kts | 187° |
| 2026-04-29 10:27 | 35.42485 | 25.40645 | 4399 ft | 251 kts | 154° |
| 2026-04-29 10:28 | 35.40981 | 25.41663 | 4339 ft | 240 kts | 146° |
| 2026-04-29 10:28 | 35.39579 | 25.42727 | 4254 ft | 235 kts | 147° |
| 2026-04-29 10:28 | 35.38089 | 25.43621 | 4172 ft | 239 kts | 163° |
| 2026-04-29 10:28 | 35.36462 | 25.43621 | 4083 ft | 229 kts | 202° |
| 2026-04-29 10:29 | 35.35231 | 25.42493 | 3837 ft | 219 kts | 238° |
| 2026-04-29 10:29 | 35.34561 | 25.40824 | 3529 ft | 214 kts | 252° |
| 2026-04-29 10:29 | 35.34000 | 25.39156 | 3253 ft | 212 kts | 251° |
| 2026-04-29 10:29 | 35.33391 | 25.37507 | 2983 ft | 209 kts | 249° |
| 2026-04-29 10:30 | 35.32833 | 25.35864 | 2578 ft | 213 kts | 258° |
| 2026-04-29 10:30 | 35.32727 | 25.34124 | 2424 ft | 197 kts | 280° |
| 2026-04-29 10:30 | 35.32917 | 25.32507 | 2295 ft | 187 kts | 282° |
| 2026-04-29 10:30 | 35.33077 | 25.30947 | 2120 ft | 182 kts | 279° |
| 2026-04-29 10:31 | 35.33188 | 25.29411 | 1974 ft | 176 kts | 278° |
| 2026-04-29 10:31 | 35.33288 | 25.27915 | 1716 ft | 175 kts | 278° |
| 2026-04-29 10:31 | 35.33387 | 25.26472 | 1433 ft | 164 kts | 278° |
| 2026-04-29 10:31 | 35.33482 | 25.25118 | 1181 ft | 156 kts | 279° |
| 2026-04-29 10:32 | 35.33575 | 25.23799 | 944 ft | 151 kts | 278° |
| 2026-04-29 10:32 | 35.33668 | 25.22504 | 718 ft | 152 kts | 278° |
| 2026-04-29 10:32 | 35.33760 | 25.21220 | 493 ft | 152 kts | 278° |
| 2026-04-29 10:32 | 35.33844 | 25.19947 | 259 ft | 148 kts | 277° |
| 2026-04-29 10:33 | 35.33928 | 25.18699 | 88 ft | 142 kts | 277° |
| 2026-04-29 10:33 | 35.34000 | 25.17679 | 94 ft | 82 kts | 275° |
| 2026-04-29 10:33 | 35.34023 | 25.17207 | 90 ft | 44 kts | 261° |
| 2026-04-29 10:33 | 35.33962 | 25.17047 | 95 ft | 5 kts | 187° |
| 2026-04-29 10:34 | 35.33947 | 25.17059 | 96 ft | 1 kts | 124° |
| 2026-04-29 10:34 | 35.33937 | 25.17117 | 97 ft | 11 kts | 95° |
| 2026-04-29 10:34 | 35.33929 | 25.17232 | 99 ft | 12 kts | 95° |
| 2026-04-29 10:34 | 35.33923 | 25.17329 | 102 ft | 9 kts | 94° |
| 2026-04-29 10:35 | 35.33896 | 25.17377 | 105 ft | 4 kts | 170° |
| 2026-04-29 10:35 | 35.33870 | 25.17376 | 107 ft | 5 kts | 185° |
| 2026-04-29 10:35 | 35.33843 | 25.17364 | 110 ft | 3 kts | 242° |
| 2026-04-29 10:35 | 35.33854 | 25.17306 | 108 ft | 8 kts | 316° |
| 2026-04-29 10:36 | 35.33865 | 25.17291 | 107 ft | 0 kts | 310° |